createdAt,value
2023-04-24T16:16:50.955Z,1007.79
2023-04-24T16:17:02.319Z,1007.75
2023-04-24T16:17:11.285Z,1007.77
2023-04-24T16:17:21.657Z,1007.77
2023-04-24T16:17:32.311Z,1007.76
2023-04-24T16:17:41.723Z,1007.79
2023-04-24T16:17:51.916Z,1007.78
2023-04-24T16:18:11.074Z,1007.78
2023-04-24T16:18:22.254Z,1007.75
2023-04-24T16:18:33.029Z,1007.77
2023-04-24T16:18:42.571Z,1007.75
2023-04-24T16:18:52.641Z,1007.76
2023-04-24T16:19:02.710Z,1007.73
2023-04-24T16:19:13.145Z,1007.75
2023-04-24T16:19:22.852Z,1007.81
2023-04-24T16:19:34.151Z,1007.74
2023-04-24T16:19:43.084Z,1007.75
2023-04-24T16:19:53.386Z,1007.77
2023-04-24T16:20:03.382Z,1007.76
2023-04-24T16:20:14.346Z,1007.73
2023-04-24T16:20:23.613Z,1007.73
2023-04-24T16:20:44.732Z,1007.65
2023-04-24T16:20:54.788Z,1007.71
2023-04-24T16:21:04.296Z,1007.66
2023-04-24T16:21:14.718Z,1007.66
2023-04-24T16:21:24.441Z,1007.66
2023-04-24T16:21:34.661Z,1007.67
2023-04-24T16:21:45.589Z,1007.68
2023-04-24T16:21:54.981Z,1007.69
2023-04-24T16:22:05.104Z,1007.76
2023-04-24T16:22:15.972Z,1007.82
2023-04-24T16:22:25.277Z,1007.87
2023-04-24T16:22:35.429Z,1008.03
2023-04-24T16:22:45.594Z,1008.18
2023-04-24T16:22:55.661Z,1008.25
2023-04-24T16:23:05.765Z,1008.33
2023-04-24T16:23:15.916Z,1008.36
2023-04-24T16:23:26.177Z,1008.37
2023-04-24T16:23:36.130Z,1008.41
2023-04-24T16:23:46.310Z,1008.44
2023-04-24T16:23:56.410Z,1008.44
2023-04-24T16:24:06.669Z,1008.46
2023-04-24T16:24:16.793Z,1008.47
2023-04-24T16:24:26.906Z,1008.55
2023-04-24T16:24:37.985Z,1008.54
2023-04-24T16:24:46.980Z,1008.56
2023-04-24T16:24:57.133Z,1008.54
2023-04-24T16:25:07.256Z,1008.58
2023-04-24T16:25:17.407Z,1008.58
2023-04-24T16:25:27.689Z,1008.64
2023-04-24T16:25:47.807Z,1008.70
2023-04-24T16:25:57.971Z,1008.69
2023-04-24T16:26:08.056Z,1008.73
2023-04-24T16:26:18.314Z,1008.82
2023-04-24T16:26:28.495Z,1008.84
2023-04-24T16:26:38.577Z,1008.89
2023-04-24T16:26:48.670Z,1008.87
2023-04-24T16:26:58.784Z,1008.93
2023-04-24T16:27:08.819Z,1008.96
2023-04-24T16:27:19.579Z,1008.95
2023-04-24T16:27:29.100Z,1008.95
2023-04-24T16:27:39.183Z,1009.00
2023-04-24T16:27:49.206Z,1009.05
2023-04-24T16:27:59.309Z,1009.03
2023-04-24T16:28:09.551Z,1009.11
2023-04-24T16:28:19.907Z,1009.11
2023-04-24T16:28:29.938Z,1009.14
2023-04-24T16:28:39.942Z,1009.17
2023-04-24T16:28:51.067Z,1009.18
2023-04-24T16:29:00.266Z,1009.24
2023-04-24T16:29:10.358Z,1009.26
2023-04-24T16:29:20.416Z,1009.27
2023-04-24T16:29:30.936Z,1009.33
2023-04-24T16:29:40.782Z,1009.36
2023-04-24T16:30:02.832Z,1009.37
2023-04-24T16:30:11.228Z,1009.33
2023-04-24T16:30:21.297Z,1009.31
2023-04-24T16:30:32.432Z,1009.32
2023-04-24T16:30:41.555Z,1009.33
2023-04-24T16:30:52.513Z,1009.32
2023-04-24T16:31:11.909Z,1009.31
2023-04-24T16:31:21.943Z,1009.32
2023-04-24T16:31:32.193Z,1009.29
2023-04-24T16:31:42.199Z,1009.28
2023-04-24T16:31:52.457Z,1009.25
2023-04-24T16:32:02.951Z,1009.25
2023-04-24T16:32:12.715Z,1009.28
2023-04-24T16:32:22.729Z,1009.27
2023-04-24T16:32:34.197Z,1009.26
2023-04-24T16:32:43.043Z,1009.24
2023-04-24T16:32:53.419Z,1009.22
2023-04-24T16:33:03.893Z,1009.26
2023-04-24T16:33:13.447Z,1009.25
2023-04-24T16:33:23.595Z,1009.23
2023-04-24T16:33:44.523Z,1009.22
2023-04-24T16:33:53.949Z,1009.26
2023-04-24T16:34:04.151Z,1009.24
2023-04-24T16:34:14.274Z,1009.25
2023-04-24T16:34:25.514Z,1009.27
2023-04-24T16:34:34.530Z,1009.29
2023-04-24T16:34:45.538Z,1009.27
2023-04-24T16:34:54.844Z,1009.28
2023-04-24T16:35:04.890Z,1009.26
2023-04-24T16:35:15.081Z,1009.29
2023-04-24T16:35:34.270Z,1009.30
2023-04-24T16:35:45.396Z,1009.30
2023-04-24T16:35:56.660Z,1009.30
2023-04-24T16:36:07.344Z,1009.29
2023-04-24T16:36:15.789Z,1009.25
2023-04-24T16:36:25.893Z,1009.29
2023-04-24T16:36:35.946Z,1009.28
2023-04-24T16:36:46.184Z,1009.30
2023-04-24T16:37:06.442Z,1009.33
2023-04-24T16:37:16.513Z,1009.28
2023-04-24T16:37:26.581Z,1009.30
2023-04-24T16:37:36.663Z,1009.24
2023-04-24T16:37:47.910Z,1009.28
2023-04-24T16:37:57.180Z,1009.25
2023-04-24T16:38:07.899Z,1009.25
2023-04-24T16:38:17.351Z,1009.22
2023-04-24T16:38:27.473Z,1009.17
2023-04-24T16:38:37.524Z,1009.09
2023-04-24T16:38:57.781Z,1008.98
2023-04-24T16:39:08.520Z,1008.93
2023-04-24T16:39:17.976Z,1008.83
2023-04-24T16:39:28.125Z,1008.85
2023-04-24T16:39:38.345Z,1008.86
2023-04-24T16:39:48.410Z,1008.84
2023-04-24T16:39:58.402Z,1008.83
2023-04-24T16:40:08.742Z,1008.81
2023-04-24T16:40:18.878Z,1008.83
2023-04-24T16:40:30.370Z,1008.88
2023-04-24T16:40:39.322Z,1008.82
2023-04-24T16:40:51.491Z,1008.82
2023-04-24T16:40:59.144Z,1008.84
2023-04-24T16:41:09.241Z,1008.82
2023-04-24T16:41:19.366Z,1008.82
2023-04-24T16:41:38.563Z,1008.80
2023-04-24T16:41:49.659Z,1008.80
2023-04-24T16:42:00.845Z,1008.80
2023-04-24T16:42:09.893Z,1008.77
2023-04-24T16:42:20.047Z,1008.82
2023-04-24T16:42:30.298Z,1008.82
2023-04-24T16:42:40.356Z,1008.79
2023-04-24T16:42:50.399Z,1008.81
2023-04-24T16:43:00.539Z,1008.84
2023-04-24T16:43:10.687Z,1008.89
2023-04-24T16:43:20.770Z,1008.82
2023-04-24T16:43:30.775Z,1008.84
2023-04-24T16:43:41.012Z,1008.82
2023-04-24T16:43:51.207Z,1008.78
2023-04-24T16:44:01.346Z,1008.83
2023-04-24T16:44:11.413Z,1008.83
2023-04-24T16:44:21.572Z,1008.88
2023-04-24T16:44:31.726Z,1008.84
2023-04-24T16:44:41.916Z,1008.86
2023-04-24T16:44:52.016Z,1008.86
2023-04-24T16:45:10.346Z,1008.87
2023-04-24T16:45:34.788Z,1008.84
2023-04-24T16:45:41.624Z,1008.83
2023-04-24T16:45:52.380Z,1008.85
2023-04-24T16:46:04.166Z,1008.86
2023-04-24T16:46:14.104Z,1008.81
2023-04-24T16:46:22.860Z,1008.87
2023-04-24T16:46:44.771Z,1008.83
2023-04-24T16:46:56.748Z,1008.89
2023-04-24T16:47:05.183Z,1008.87
2023-04-24T16:47:13.250Z,1008.87
2023-04-24T16:47:24.633Z,1008.90
2023-04-24T16:47:35.607Z,1008.86
2023-04-24T16:47:46.718Z,1008.85
2023-04-24T16:47:56.413Z,1008.86
2023-04-24T16:48:08.198Z,1008.87
2023-04-24T16:48:19.540Z,1008.82
2023-04-24T16:48:28.437Z,1008.74
2023-04-24T16:48:37.145Z,1008.70
2023-04-24T16:49:00.150Z,1008.60
2023-04-24T16:49:15.779Z,1008.60
2023-04-24T16:49:25.515Z,1008.61
2023-04-24T16:49:37.412Z,1008.54
2023-04-24T16:49:54.834Z,1008.47
2023-04-24T16:50:04.251Z,1008.41
2023-04-24T16:50:14.061Z,1008.39
2023-04-24T16:50:23.349Z,1008.31
2023-04-24T16:50:32.783Z,1008.25
2023-04-24T16:50:42.915Z,1008.21
2023-04-24T16:50:55.778Z,1008.14
2023-04-24T16:51:15.851Z,1008.09
2023-04-24T16:51:31.290Z,1008.10
2023-04-24T16:51:37.258Z,1008.13
2023-04-24T16:51:45.090Z,1008.13
2023-04-24T16:51:56.087Z,1008.15
2023-04-24T16:52:05.288Z,1008.15
2023-04-24T16:52:15.706Z,1008.12
2023-04-24T16:52:27.727Z,1008.08
2023-04-24T16:52:37.578Z,1008.05
2023-04-24T16:52:49.312Z,1008.08
2023-04-24T16:52:57.182Z,1008.05
2023-04-24T16:53:06.084Z,1008.01
2023-04-24T16:53:19.554Z,1007.98
2023-04-24T16:53:41.680Z,1007.81
2023-04-24T16:53:48.760Z,1007.74
2023-04-24T16:54:03.107Z,1007.64
2023-04-24T16:54:09.162Z,1007.64
2023-04-24T16:54:19.352Z,1007.60
2023-04-24T16:54:29.580Z,1007.55
2023-04-24T16:54:50.036Z,1007.51
2023-04-24T16:54:59.888Z,1007.48
2023-04-24T16:55:10.207Z,1007.47
2023-04-24T16:55:20.103Z,1007.44
2023-04-24T16:55:31.111Z,1007.39
2023-04-24T16:55:40.392Z,1007.36
2023-04-24T16:55:51.528Z,1007.37
2023-04-24T16:56:00.672Z,1007.30
2023-04-24T16:56:10.692Z,1007.28
2023-04-24T16:56:20.883Z,1007.27
2023-04-24T16:56:45.893Z,1007.26
2023-04-24T16:56:51.646Z,1007.30
2023-04-24T16:57:02.224Z,1007.32
2023-04-24T16:57:10.329Z,1007.32
2023-04-24T16:57:22.076Z,1007.28
2023-04-24T16:57:37.952Z,1007.31
2023-04-24T16:57:54.107Z,1007.23
2023-04-24T16:58:04.185Z,1007.29
2023-04-24T16:58:15.290Z,1007.26
2023-04-24T16:58:27.364Z,1007.31
2023-04-24T16:58:38.428Z,1007.25
2023-04-24T16:58:45.525Z,1007.20
2023-04-24T16:58:55.795Z,1007.03
2023-04-24T16:59:05.748Z,1006.91
2023-04-24T16:59:17.207Z,1006.88
2023-04-24T16:59:28.146Z,1006.81
2023-04-24T16:59:50.558Z,1006.65
2023-04-24T16:59:56.639Z,1006.52
2023-04-24T17:00:11.607Z,1006.39
2023-04-24T17:00:17.665Z,1006.24
2023-04-24T17:00:28.808Z,1006.10
2023-04-24T17:00:39.301Z,1005.98
2023-04-24T17:01:02.524Z,1006.00
2023-04-24T17:01:09.856Z,1006.03
2023-04-24T17:01:19.549Z,1006.00
2023-04-24T17:01:29.705Z,1005.94
2023-04-24T17:01:39.761Z,1006.01
2023-04-24T17:01:49.976Z,1006.06
2023-04-24T17:02:10.184Z,1006.16
2023-04-24T17:02:20.362Z,1006.20
2023-04-24T17:02:30.449Z,1006.20
2023-04-24T17:02:40.623Z,1006.26
2023-04-24T17:02:51.023Z,1006.41
2023-04-24T17:03:00.906Z,1006.59
2023-04-24T17:03:12.632Z,1006.78
2023-04-24T17:03:21.358Z,1006.92
2023-04-24T17:03:31.361Z,1007.00
2023-04-24T17:03:41.740Z,1007.11
2023-04-24T17:03:51.472Z,1007.24
2023-04-24T17:04:01.692Z,1007.32
2023-04-24T17:04:11.748Z,1007.42
2023-04-24T17:04:21.832Z,1007.50
2023-04-24T17:04:32.159Z,1007.58
2023-04-24T17:04:43.010Z,1007.61
2023-04-24T17:04:52.223Z,1007.69
2023-04-24T17:05:02.969Z,1007.82
2023-04-24T17:05:12.567Z,1007.89
2023-04-24T17:05:23.210Z,1007.91
2023-04-24T17:05:32.810Z,1007.94
2023-04-24T17:05:53.036Z,1007.93
